sensor_id;sensor_type;location;lat;lon;timestamp;P1;durP1;ratioP1;P2;durP2;ratioP2
79122;SDS011;68526;44.600;26.032;2024-01-25T00:00:13;42.63;;;23.00;;
79122;SDS011;68526;44.600;26.032;2024-01-25T00:00:30;41.50;;;22.83;;
79122;SDS011;68526;44.600;26.032;2024-01-25T00:00:46;39.97;;;21.45;;
79122;SDS011;68526;44.600;26.032;2024-01-25T00:01:02;39.20;;;21.25;;
79122;SDS011;68526;44.600;26.032;2024-01-25T00:01:18;37.40;;;20.60;;
79122;SDS011;68526;44.600;26.032;2024-01-25T00:01:34;39.05;;;21.10;;
79122;SDS011;68526;44.600;26.032;2024-01-25T00:01:50;42.03;;;22.08;;
79122;SDS011;68526;44.600;26.032;2024-01-25T00:02:06;43.63;;;21.95;;
79122;SDS011;68526;44.600;26.032;2024-01-25T00:02:22;43.50;;;21.10;;
79122;SDS011;68526;44.600;26.032;2024-01-25T00:02:38;39.17;;;21.20;;
79122;SDS011;68526;44.600;26.032;2024-01-25T00:02:54;40.10;;;21.60;;
79122;SDS011;68526;44.600;26.032;2024-01-25T00:03:10;43.83;;;22.27;;
79122;SDS011;68526;44.600;26.032;2024-01-25T00:03:26;41.33;;;21.80;;
79122;SDS011;68526;44.600;26.032;2024-01-25T00:03:42;41.83;;;21.58;;
79122;SDS011;68526;44.600;26.032;2024-01-25T00:03:58;43.72;;;22.65;;
79122;SDS011;68526;44.600;26.032;2024-01-25T00:04:14;40.60;;;21.80;;
79122;SDS011;68526;44.600;26.032;2024-01-25T00:04:30;39.20;;;21.87;;
79122;SDS011;68526;44.600;26.032;2024-01-25T00:04:46;37.85;;;21.50;;
79122;SDS011;68526;44.600;26.032;2024-01-25T00:05:02;38.47;;;21.20;;
79122;SDS011;68526;44.600;26.032;2024-01-25T00:05:18;41.00;;;22.02;;
79122;SDS011;68526;44.600;26.032;2024-01-25T00:05:34;41.97;;;21.70;;
79122;SDS011;68526;44.600;26.032;2024-01-25T00:05:53;42.53;;;21.38;;
79122;SDS011;68526;44.600;26.032;2024-01-25T00:06:08;40.73;;;22.17;;
79122;SDS011;68526;44.600;26.032;2024-01-25T00:06:24;39.60;;;22.30;;
79122;SDS011;68526;44.600;26.032;2024-01-25T00:06:40;38.38;;;21.33;;
79122;SDS011;68526;44.600;26.032;2024-01-25T00:06:56;37.65;;;21.15;;
79122;SDS011;68526;44.600;26.032;2024-01-25T00:07:12;40.95;;;21.70;;
79122;SDS011;68526;44.600;26.032;2024-01-25T00:07:28;41.10;;;21.92;;
79122;SDS011;68526;44.600;26.032;2024-01-25T00:07:45;39.65;;;21.77;;
79122;SDS011;68526;44.600;26.032;2024-01-25T00:08:01;41.58;;;21.83;;
79122;SDS011;68526;44.600;26.032;2024-01-25T00:08:18;40.20;;;21.33;;
79122;SDS011;68526;44.600;26.032;2024-01-25T00:08:34;40.23;;;20.40;;
79122;SDS011;68526;44.600;26.032;2024-01-25T00:08:50;39.60;;;20.77;;
79122;SDS011;68526;44.600;26.032;2024-01-25T00:09:06;40.08;;;21.60;;
79122;SDS011;68526;44.600;26.032;2024-01-25T00:09:22;42.30;;;21.98;;
79122;SDS011;68526;44.600;26.032;2024-01-25T00:09:38;40.83;;;22.13;;
79122;SDS011;68526;44.600;26.032;2024-01-25T00:09:54;37.22;;;21.88;;
79122;SDS011;68526;44.600;26.032;2024-01-25T00:10:10;40.15;;;22.00;;
79122;SDS011;68526;44.600;26.032;2024-01-25T00:10:27;44.03;;;21.77;;
79122;SDS011;68526;44.600;26.032;2024-01-25T00:10:43;41.67;;;21.23;;
79122;SDS011;68526;44.600;26.032;2024-01-25T00:10:59;39.67;;;21.47;;
79122;SDS011;68526;44.600;26.032;2024-01-25T00:11:15;41.20;;;22.02;;
79122;SDS011;68526;44.600;26.032;2024-01-25T00:11:31;40.27;;;21.77;;
79122;SDS011;68526;44.600;26.032;2024-01-25T00:11:47;39.33;;;21.47;;
79122;SDS011;68526;44.600;26.032;2024-01-25T00:12:04;40.20;;;21.10;;
79122;SDS011;68526;44.600;26.032;2024-01-25T00:12:21;43.07;;;21.23;;
79122;SDS011;68526;44.600;26.032;2024-01-25T00:12:37;43.30;;;21.63;;
79122;SDS011;68526;44.600;26.032;2024-01-25T00:12:53;41.22;;;21.45;;
79122;SDS011;68526;44.600;26.032;2024-01-25T00:13:09;41.33;;;21.73;;
79122;SDS011;68526;44.600;26.032;2024-01-25T00:13:25;41.42;;;22.08;;
79122;SDS011;68526;44.600;26.032;2024-01-25T00:13:41;39.22;;;21.60;;
79122;SDS011;68526;44.600;26.032;2024-01-25T00:13:57;39.45;;;21.23;;
79122;SDS011;68526;44.600;26.032;2024-01-25T00:14:13;39.78;;;20.95;;
79122;SDS011;68526;44.600;26.032;2024-01-25T00:14:30;39.92;;;21.52;;
79122;SDS011;68526;44.600;26.032;2024-01-25T00:14:46;39.22;;;22.38;;
79122;SDS011;68526;44.600;26.032;2024-01-25T00:15:02;38.72;;;21.40;;
79122;SDS011;68526;44.600;26.032;2024-01-25T00:15:18;41.45;;;21.10;;
79122;SDS011;68526;44.600;26.032;2024-01-25T00:15:34;42.58;;;21.48;;
79122;SDS011;68526;44.600;26.032;2024-01-25T00:15:50;41.17;;;21.33;;
79122;SDS011;68526;44.600;26.032;2024-01-25T00:16:07;38.85;;;21.17;;
79122;SDS011;68526;44.600;26.032;2024-01-25T00:16:22;38.03;;;20.70;;
79122;SDS011;68526;44.600;26.032;2024-01-25T00:16:40;39.92;;;20.73;;
79122;SDS011;68526;44.600;26.032;2024-01-25T00:16:57;41.22;;;21.20;;
79122;SDS011;68526;44.600;26.032;2024-01-25T00:17:13;40.55;;;21.20;;
79122;SDS011;68526;44.600;26.032;2024-01-25T00:17:28;43.88;;;21.90;;
79122;SDS011;68526;44.600;26.032;2024-01-25T00:17:44;42.88;;;21.45;;
79122;SDS011;68526;44.600;26.032;2024-01-25T00:18:00;39.38;;;20.52;;
79122;SDS011;68526;44.600;26.032;2024-01-25T00:18:16;40.47;;;22.03;;
79122;SDS011;68526;44.600;26.032;2024-01-25T00:18:33;41.92;;;22.35;;
79122;SDS011;68526;44.600;26.032;2024-01-25T00:18:49;42.38;;;21.88;;
79122;SDS011;68526;44.600;26.032;2024-01-25T00:19:05;39.13;;;21.93;;
79122;SDS011;68526;44.600;26.032;2024-01-25T00:19:21;39.08;;;21.65;;
79122;SDS011;68526;44.600;26.032;2024-01-25T00:19:37;39.47;;;20.92;;
79122;SDS011;68526;44.600;26.032;2024-01-25T00:19:53;40.45;;;20.65;;
79122;SDS011;68526;44.600;26.032;2024-01-25T00:20:09;43.70;;;21.48;;
79122;SDS011;68526;44.600;26.032;2024-01-25T00:20:26;44.90;;;22.02;;
79122;SDS011;68526;44.600;26.032;2024-01-25T00:20:43;41.03;;;21.30;;
79122;SDS011;68526;44.600;26.032;2024-01-25T00:21:00;40.43;;;21.20;;
79122;SDS011;68526;44.600;26.032;2024-01-25T00:21:16;42.17;;;21.02;;
79122;SDS011;68526;44.600;26.032;2024-01-25T00:21:32;42.22;;;20.75;;
79122;SDS011;68526;44.600;26.032;2024-01-25T00:21:48;40.83;;;20.95;;
79122;SDS011;68526;44.600;26.032;2024-01-25T00:22:04;40.20;;;21.37;;
79122;SDS011;68526;44.600;26.032;2024-01-25T00:22:20;39.35;;;21.48;;
79122;SDS011;68526;44.600;26.032;2024-01-25T00:22:36;40.53;;;22.02;;
79122;SDS011;68526;44.600;26.032;2024-01-25T00:22:52;39.85;;;21.80;;
79122;SDS011;68526;44.600;26.032;2024-01-25T00:23:09;39.88;;;21.85;;
79122;SDS011;68526;44.600;26.032;2024-01-25T00:23:25;41.65;;;21.55;;
79122;SDS011;68526;44.600;26.032;2024-01-25T00:23:41;43.10;;;21.48;;
79122;SDS011;68526;44.600;26.032;2024-01-25T00:23:57;40.85;;;21.35;;
79122;SDS011;68526;44.600;26.032;2024-01-25T00:24:13;37.85;;;20.27;;
79122;SDS011;68526;44.600;26.032;2024-01-25T00:24:29;39.35;;;21.05;;
79122;SDS011;68526;44.600;26.032;2024-01-25T00:24:46;42.80;;;21.75;;
79122;SDS011;68526;44.600;26.032;2024-01-25T00:25:02;40.80;;;21.52;;
79122;SDS011;68526;44.600;26.032;2024-01-25T00:25:19;41.63;;;21.98;;
79122;SDS011;68526;44.600;26.032;2024-01-25T00:25:35;39.90;;;21.40;;
79122;SDS011;68526;44.600;26.032;2024-01-25T00:25:51;40.40;;;21.75;;
79122;SDS011;68526;44.600;26.032;2024-01-25T00:26:06;41.08;;;22.48;;
79122;SDS011;68526;44.600;26.032;2024-01-25T00:26:22;38.90;;;21.63;;
79122;SDS011;68526;44.600;26.032;2024-01-25T00:26:38;38.30;;;20.73;;
79122;SDS011;68526;44.600;26.032;2024-01-25T00:26:55;42.83;;;22.05;;
79122;SDS011;68526;44.600;26.032;2024-01-25T00:27:11;44.65;;;22.50;;
79122;SDS011;68526;44.600;26.032;2024-01-25T00:27:27;39.83;;;21.05;;
79122;SDS011;68526;44.600;26.032;2024-01-25T00:27:43;38.07;;;21.00;;
79122;SDS011;68526;44.600;26.032;2024-01-25T00:28:00;37.03;;;21.02;;
79122;SDS011;68526;44.600;26.032;2024-01-25T00:28:15;35.95;;;20.83;;
79122;SDS011;68526;44.600;26.032;2024-01-25T00:28:32;36.97;;;21.13;;
79122;SDS011;68526;44.600;26.032;2024-01-25T00:28:48;39.15;;;21.05;;
79122;SDS011;68526;44.600;26.032;2024-01-25T00:29:04;42.07;;;21.60;;
79122;SDS011;68526;44.600;26.032;2024-01-25T00:29:20;40.72;;;21.52;;
79122;SDS011;68526;44.600;26.032;2024-01-25T00:29:37;40.22;;;21.58;;
79122;SDS011;68526;44.600;26.032;2024-01-25T00:29:53;40.10;;;22.27;;
79122;SDS011;68526;44.600;26.032;2024-01-25T00:30:09;41.23;;;21.93;;
79122;SDS011;68526;44.600;26.032;2024-01-25T00:30:25;41.10;;;20.92;;
79122;SDS011;68526;44.600;26.032;2024-01-25T00:30:42;39.78;;;20.77;;
79122;SDS011;68526;44.600;26.032;2024-01-25T00:30:58;38.67;;;20.77;;
79122;SDS011;68526;44.600;26.032;2024-01-25T00:31:14;40.20;;;21.25;;
79122;SDS011;68526;44.600;26.032;2024-01-25T00:31:30;41.97;;;22.17;;
79122;SDS011;68526;44.600;26.032;2024-01-25T00:31:46;41.90;;;21.52;;
79122;SDS011;68526;44.600;26.032;2024-01-25T00:32:02;41.65;;;20.98;;
79122;SDS011;68526;44.600;26.032;2024-01-25T00:32:19;44.40;;;21.23;;
79122;SDS011;68526;44.600;26.032;2024-01-25T00:32:35;41.40;;;21.55;;
79122;SDS011;68526;44.600;26.032;2024-01-25T00:32:52;38.63;;;21.65;;
79122;SDS011;68526;44.600;26.032;2024-01-25T00:33:07;38.05;;;21.17;;
79122;SDS011;68526;44.600;26.032;2024-01-25T00:33:23;38.03;;;20.57;;
79122;SDS011;68526;44.600;26.032;2024-01-25T00:33:39;39.83;;;21.23;;
79122;SDS011;68526;44.600;26.032;2024-01-25T00:33:56;40.35;;;21.98;;
79122;SDS011;68526;44.600;26.032;2024-01-25T00:34:13;38.45;;;20.52;;
79122;SDS011;68526;44.600;26.032;2024-01-25T00:34:30;39.30;;;21.10;;
79122;SDS011;68526;44.600;26.032;2024-01-25T00:34:47;40.38;;;21.48;;
79122;SDS011;68526;44.600;26.032;2024-01-25T00:35:03;39.58;;;21.05;;
79122;SDS011;68526;44.600;26.032;2024-01-25T00:35:20;42.70;;;21.95;;
79122;SDS011;68526;44.600;26.032;2024-01-25T00:35:37;43.70;;;22.40;;
79122;SDS011;68526;44.600;26.032;2024-01-25T00:35:53;43.33;;;22.02;;
79122;SDS011;68526;44.600;26.032;2024-01-25T00:36:12;40.70;;;21.27;;
79122;SDS011;68526;44.600;26.032;2024-01-25T00:36:30;40.40;;;21.83;;
79122;SDS011;68526;44.600;26.032;2024-01-25T00:36:46;41.50;;;21.75;;
79122;SDS011;68526;44.600;26.032;2024-01-25T00:37:03;40.13;;;21.42;;
79122;SDS011;68526;44.600;26.032;2024-01-25T00:37:19;39.63;;;21.52;;
79122;SDS011;68526;44.600;26.032;2024-01-25T00:37:36;42.72;;;21.83;;
79122;SDS011;68526;44.600;26.032;2024-01-25T00:37:52;42.05;;;21.77;;
79122;SDS011;68526;44.600;26.032;2024-01-25T00:38:10;41.45;;;21.63;;
79122;SDS011;68526;44.600;26.032;2024-01-25T00:38:26;40.65;;;21.38;;
79122;SDS011;68526;44.600;26.032;2024-01-25T00:38:43;39.95;;;21.27;;
79122;SDS011;68526;44.600;26.032;2024-01-25T00:38:59;42.83;;;21.90;;
79122;SDS011;68526;44.600;26.032;2024-01-25T00:39:16;41.40;;;21.55;;
79122;SDS011;68526;44.600;26.032;2024-01-25T00:39:32;41.00;;;21.10;;
79122;SDS011;68526;44.600;26.032;2024-01-25T00:39:49;40.35;;;21.27;;
79122;SDS011;68526;44.600;26.032;2024-01-25T00:40:05;40.47;;;21.25;;
79122;SDS011;68526;44.600;26.032;2024-01-25T00:40:23;42.80;;;22.27;;
79122;SDS011;68526;44.600;26.032;2024-01-25T00:40:40;41.13;;;21.73;;
79122;SDS011;68526;44.600;26.032;2024-01-25T00:40:56;40.95;;;21.73;;
79122;SDS011;68526;44.600;26.032;2024-01-25T00:41:13;41.72;;;22.30;;
79122;SDS011;68526;44.600;26.032;2024-01-25T00:41:34;41.40;;;21.83;;
79122;SDS011;68526;44.600;26.032;2024-01-25T00:41:51;38.03;;;20.90;;
79122;SDS011;68526;44.600;26.032;2024-01-25T00:42:11;41.00;;;21.90;;
79122;SDS011;68526;44.600;26.032;2024-01-25T00:42:29;43.38;;;22.45;;
79122;SDS011;68526;44.600;26.032;2024-01-25T00:42:47;37.25;;;20.73;;
79122;SDS011;68526;44.600;26.032;2024-01-25T00:43:08;38.05;;;21.05;;
79122;SDS011;68526;44.600;26.032;2024-01-25T00:43:25;39.47;;;21.67;;
79122;SDS011;68526;44.600;26.032;2024-01-25T00:43:41;39.95;;;21.35;;
79122;SDS011;68526;44.600;26.032;2024-01-25T00:43:58;42.28;;;21.90;;
79122;SDS011;68526;44.600;26.032;2024-01-25T00:44:14;43.35;;;22.83;;
79122;SDS011;68526;44.600;26.032;2024-01-25T00:44:31;42.63;;;23.30;;
79122;SDS011;68526;44.600;26.032;2024-01-25T00:44:49;39.92;;;22.92;;
79122;SDS011;68526;44.600;26.032;2024-01-25T00:45:05;38.53;;;22.42;;
79122;SDS011;68526;44.600;26.032;2024-01-25T00:45:22;37.90;;;21.33;;
79122;SDS011;68526;44.600;26.032;2024-01-25T00:45:39;39.35;;;21.15;;
79122;SDS011;68526;44.600;26.032;2024-01-25T00:45:55;42.92;;;22.05;;
79122;SDS011;68526;44.600;26.032;2024-01-25T00:46:12;43.92;;;22.23;;
79122;SDS011;68526;44.600;26.032;2024-01-25T00:46:28;41.42;;;22.10;;
79122;SDS011;68526;44.600;26.032;2024-01-25T00:46:46;41.42;;;22.20;;
79122;SDS011;68526;44.600;26.032;2024-01-25T00:47:02;41.85;;;21.85;;
79122;SDS011;68526;44.600;26.032;2024-01-25T00:47:19;42.22;;;22.02;;
79122;SDS011;68526;44.600;26.032;2024-01-25T00:47:35;42.95;;;22.50;;
79122;SDS011;68526;44.600;26.032;2024-01-25T00:47:52;42.00;;;22.65;;
79122;SDS011;68526;44.600;26.032;2024-01-25T00:48:09;41.65;;;22.70;;
79122;SDS011;68526;44.600;26.032;2024-01-25T00:48:27;39.80;;;21.93;;
79122;SDS011;68526;44.600;26.032;2024-01-25T00:48:43;41.20;;;22.75;;
79122;SDS011;68526;44.600;26.032;2024-01-25T00:49:00;42.55;;;23.05;;
79122;SDS011;68526;44.600;26.032;2024-01-25T00:49:16;40.17;;;21.88;;
79122;SDS011;68526;44.600;26.032;2024-01-25T00:49:33;40.17;;;21.70;;
79122;SDS011;68526;44.600;26.032;2024-01-25T00:49:51;41.83;;;22.40;;
79122;SDS011;68526;44.600;26.032;2024-01-25T00:50:07;41.65;;;22.73;;
79122;SDS011;68526;44.600;26.032;2024-01-25T00:50:25;41.47;;;22.48;;
79122;SDS011;68526;44.600;26.032;2024-01-25T00:50:42;41.47;;;22.27;;
79122;SDS011;68526;44.600;26.032;2024-01-25T00:50:58;41.67;;;22.23;;
79122;SDS011;68526;44.600;26.032;2024-01-25T00:51:16;42.17;;;22.08;;
79122;SDS011;68526;44.600;26.032;2024-01-25T00:51:36;43.15;;;22.48;;
79122;SDS011;68526;44.600;26.032;2024-01-25T00:51:54;43.65;;;22.30;;
79122;SDS011;68526;44.600;26.032;2024-01-25T00:52:13;43.63;;;24.33;;
79122;SDS011;68526;44.600;26.032;2024-01-25T00:52:31;43.90;;;23.52;;
79122;SDS011;68526;44.600;26.032;2024-01-25T00:52:47;44.55;;;22.90;;
79122;SDS011;68526;44.600;26.032;2024-01-25T00:53:04;43.17;;;23.35;;
79122;SDS011;68526;44.600;26.032;2024-01-25T00:53:21;41.97;;;22.58;;
79122;SDS011;68526;44.600;26.032;2024-01-25T00:53:37;42.08;;;22.40;;
79122;SDS011;68526;44.600;26.032;2024-01-25T00:53:54;42.47;;;22.92;;
79122;SDS011;68526;44.600;26.032;2024-01-25T00:54:11;45.08;;;23.90;;
79122;SDS011;68526;44.600;26.032;2024-01-25T00:54:29;43.08;;;23.65;;
79122;SDS011;68526;44.600;26.032;2024-01-25T00:54:45;41.38;;;22.90;;
79122;SDS011;68526;44.600;26.032;2024-01-25T00:55:02;42.20;;;22.73;;
79122;SDS011;68526;44.600;26.032;2024-01-25T00:55:19;43.70;;;23.45;;
79122;SDS011;68526;44.600;26.032;2024-01-25T00:55:35;43.92;;;23.50;;
79122;SDS011;68526;44.600;26.032;2024-01-25T00:55:52;42.47;;;22.80;;
79122;SDS011;68526;44.600;26.032;2024-01-25T00:56:09;42.33;;;22.02;;
79122;SDS011;68526;44.600;26.032;2024-01-25T00:56:27;43.55;;;22.55;;
79122;SDS011;68526;44.600;26.032;2024-01-25T00:56:43;43.53;;;23.10;;
79122;SDS011;68526;44.600;26.032;2024-01-25T00:57:00;46.80;;;23.70;;
79122;SDS011;68526;44.600;26.032;2024-01-25T00:57:16;44.15;;;23.38;;
79122;SDS011;68526;44.600;26.032;2024-01-25T00:57:33;42.10;;;22.83;;
79122;SDS011;68526;44.600;26.032;2024-01-25T00:57:49;42.53;;;22.73;;
79122;SDS011;68526;44.600;26.032;2024-01-25T00:58:08;39.73;;;22.67;;
79122;SDS011;68526;44.600;26.032;2024-01-25T00:58:24;39.95;;;22.35;;
79122;SDS011;68526;44.600;26.032;2024-01-25T00:58:41;43.35;;;21.77;;
79122;SDS011;68526;44.600;26.032;2024-01-25T00:58:57;47.60;;;23.25;;
79122;SDS011;68526;44.600;26.032;2024-01-25T00:59:14;46.50;;;22.92;;
79122;SDS011;68526;44.600;26.032;2024-01-25T00:59:30;44.22;;;22.75;;
79122;SDS011;68526;44.600;26.032;2024-01-25T00:59:46;39.57;;;22.43;;
79122;SDS011;68526;44.600;26.032;2024-01-25T01:00:03;39.75;;;22.35;;
79122;SDS011;68526;44.600;26.032;2024-01-25T01:00:23;41.60;;;23.10;;
79122;SDS011;68526;44.600;26.032;2024-01-25T01:00:40;42.75;;;23.25;;
79122;SDS011;68526;44.600;26.032;2024-01-25T01:00:56;45.63;;;23.17;;
79122;SDS011;68526;44.600;26.032;2024-01-25T01:01:13;44.72;;;23.50;;
79122;SDS011;68526;44.600;26.032;2024-01-25T01:01:29;44.50;;;23.52;;
79122;SDS011;68526;44.600;26.032;2024-01-25T01:01:46;44.35;;;23.60;;
79122;SDS011;68526;44.600;26.032;2024-01-25T01:02:03;42.33;;;22.67;;
79122;SDS011;68526;44.600;26.032;2024-01-25T01:02:21;42.42;;;23.13;;
79122;SDS011;68526;44.600;26.032;2024-01-25T01:02:39;42.53;;;23.58;;
79122;SDS011;68526;44.600;26.032;2024-01-25T01:02:58;43.90;;;23.52;;
79122;SDS011;68526;44.600;26.032;2024-01-25T01:03:18;43.35;;;23.30;;
79122;SDS011;68526;44.600;26.032;2024-01-25T01:03:34;44.80;;;23.92;;
79122;SDS011;68526;44.600;26.032;2024-01-25T01:03:51;42.95;;;23.55;;
79122;SDS011;68526;44.600;26.032;2024-01-25T01:04:08;43.75;;;23.05;;
79122;SDS011;68526;44.600;26.032;2024-01-25T01:04:25;43.53;;;22.75;;
79122;SDS011;68526;44.600;26.032;2024-01-25T01:04:42;42.88;;;22.75;;
79122;SDS011;68526;44.600;26.032;2024-01-25T01:04:58;42.45;;;23.17;;
79122;SDS011;68526;44.600;26.032;2024-01-25T01:05:15;43.30;;;23.38;;
79122;SDS011;68526;44.600;26.032;2024-01-25T01:05:31;43.42;;;23.60;;
79122;SDS011;68526;44.600;26.032;2024-01-25T01:05:48;42.65;;;23.00;;
79122;SDS011;68526;44.600;26.032;2024-01-25T01:06:05;43.28;;;22.85;;
79122;SDS011;68526;44.600;26.032;2024-01-25T01:06:24;45.60;;;23.67;;
79122;SDS011;68526;44.600;26.032;2024-01-25T01:06:40;45.85;;;24.02;;
79122;SDS011;68526;44.600;26.032;2024-01-25T01:06:57;47.23;;;24.33;;
79122;SDS011;68526;44.600;26.032;2024-01-25T01:07:13;45.90;;;23.45;;
79122;SDS011;68526;44.600;26.032;2024-01-25T01:07:30;42.28;;;22.67;;
79122;SDS011;68526;44.600;26.032;2024-01-25T01:07:47;42.80;;;23.10;;
79122;SDS011;68526;44.600;26.032;2024-01-25T01:08:03;44.30;;;24.13;;
79122;SDS011;68526;44.600;26.032;2024-01-25T01:08:20;44.63;;;24.33;;
79122;SDS011;68526;44.600;26.032;2024-01-25T01:08:38;43.25;;;23.42;;
79122;SDS011;68526;44.600;26.032;2024-01-25T01:08:54;41.20;;;23.08;;
79122;SDS011;68526;44.600;26.032;2024-01-25T01:09:10;43.80;;;23.87;;
79122;SDS011;68526;44.600;26.032;2024-01-25T01:09:26;43.92;;;23.85;;
79122;SDS011;68526;44.600;26.032;2024-01-25T01:09:43;44.85;;;23.45;;
79122;SDS011;68526;44.600;26.032;2024-01-25T01:09:58;46.85;;;23.63;;
79122;SDS011;68526;44.600;26.032;2024-01-25T01:10:15;44.70;;;23.23;;
79122;SDS011;68526;44.600;26.032;2024-01-25T01:10:31;40.30;;;22.23;;
79122;SDS011;68526;44.600;26.032;2024-01-25T01:10:47;41.13;;;22.77;;
79122;SDS011;68526;44.600;26.032;2024-01-25T01:11:03;43.45;;;23.65;;
79122;SDS011;68526;44.600;26.032;2024-01-25T01:11:20;42.60;;;23.33;;
79122;SDS011;68526;44.600;26.032;2024-01-25T01:11:35;42.53;;;22.65;;
79122;SDS011;68526;44.600;26.032;2024-01-25T01:11:53;42.13;;;22.63;;
79122;SDS011;68526;44.600;26.032;2024-01-25T01:12:08;41.45;;;22.98;;
79122;SDS011;68526;44.600;26.032;2024-01-25T01:12:24;42.88;;;23.77;;
79122;SDS011;68526;44.600;26.032;2024-01-25T01:12:40;43.75;;;24.08;;
79122;SDS011;68526;44.600;26.032;2024-01-25T01:12:56;45.47;;;23.88;;
79122;SDS011;68526;44.600;26.032;2024-01-25T01:13:12;44.85;;;22.98;;
79122;SDS011;68526;44.600;26.032;2024-01-25T01:13:28;42.40;;;22.50;;
79122;SDS011;68526;44.600;26.032;2024-01-25T01:13:45;42.03;;;22.75;;
79122;SDS011;68526;44.600;26.032;2024-01-25T01:14:01;42.95;;;22.95;;
79122;SDS011;68526;44.600;26.032;2024-01-25T01:14:17;41.03;;;22.58;;
79122;SDS011;68526;44.600;26.032;2024-01-25T01:14:33;42.72;;;22.67;;
79122;SDS011;68526;44.600;26.032;2024-01-25T01:14:49;44.17;;;22.42;;
79122;SDS011;68526;44.600;26.032;2024-01-25T01:15:05;42.83;;;22.10;;
79122;SDS011;68526;44.600;26.032;2024-01-25T01:15:22;43.67;;;22.50;;
79122;SDS011;68526;44.600;26.032;2024-01-25T01:15:38;43.58;;;22.83;;
79122;SDS011;68526;44.600;26.032;2024-01-25T01:15:55;41.83;;;22.90;;
79122;SDS011;68526;44.600;26.032;2024-01-25T01:16:11;42.13;;;23.00;;
79122;SDS011;68526;44.600;26.032;2024-01-25T01:16:26;42.95;;;23.45;;
79122;SDS011;68526;44.600;26.032;2024-01-25T01:16:43;40.85;;;22.73;;
79122;SDS011;68526;44.600;26.032;2024-01-25T01:16:59;41.15;;;22.35;;
79122;SDS011;68526;44.600;26.032;2024-01-25T01:17:15;43.70;;;22.90;;
79122;SDS011;68526;44.600;26.032;2024-01-25T01:17:33;42.95;;;22.95;;
79122;SDS011;68526;44.600;26.032;2024-01-25T01:17:49;43.53;;;23.70;;
79122;SDS011;68526;44.600;26.032;2024-01-25T01:18:06;42.05;;;23.42;;
79122;SDS011;68526;44.600;26.032;2024-01-25T01:18:22;43.20;;;22.92;;
79122;SDS011;68526;44.600;26.032;2024-01-25T01:18:37;44.92;;;22.73;;
79122;SDS011;68526;44.600;26.032;2024-01-25T01:18:53;42.08;;;22.13;;
79122;SDS011;68526;44.600;26.032;2024-01-25T01:19:09;42.05;;;22.63;;
79122;SDS011;68526;44.600;26.032;2024-01-25T01:19:25;41.27;;;22.47;;
79122;SDS011;68526;44.600;26.032;2024-01-25T01:19:41;40.40;;;22.77;;
79122;SDS011;68526;44.600;26.032;2024-01-25T01:19:58;42.70;;;23.50;;
79122;SDS011;68526;44.600;26.032;2024-01-25T01:20:14;41.90;;;22.38;;
79122;SDS011;68526;44.600;26.032;2024-01-25T01:20:30;42.53;;;22.42;;
79122;SDS011;68526;44.600;26.032;2024-01-25T01:20:46;44.42;;;23.52;;
79122;SDS011;68526;44.600;26.032;2024-01-25T01:21:03;43.42;;;22.73;;
79122;SDS011;68526;44.600;26.032;2024-01-25T01:21:19;41.83;;;22.33;;
79122;SDS011;68526;44.600;26.032;2024-01-25T01:21:37;41.45;;;22.83;;
79122;SDS011;68526;44.600;26.032;2024-01-25T01:21:58;42.53;;;23.02;;
79122;SDS011;68526;44.600;26.032;2024-01-25T01:22:14;42.30;;;22.90;;
79122;SDS011;68526;44.600;26.032;2024-01-25T01:22:30;42.63;;;22.83;;
79122;SDS011;68526;44.600;26.032;2024-01-25T01:22:46;43.27;;;22.93;;
79122;SDS011;68526;44.600;26.032;2024-01-25T01:23:02;45.13;;;23.65;;
79122;SDS011;68526;44.600;26.032;2024-01-25T01:23:18;43.33;;;22.38;;
79122;SDS011;68526;44.600;26.032;2024-01-25T01:23:34;41.35;;;21.60;;
79122;SDS011;68526;44.600;26.032;2024-01-25T01:23:51;42.58;;;22.80;;
79122;SDS011;68526;44.600;26.032;2024-01-25T01:24:07;41.45;;;22.15;;
79122;SDS011;68526;44.600;26.032;2024-01-25T01:24:23;44.03;;;22.35;;
79122;SDS011;68526;44.600;26.032;2024-01-25T01:24:38;42.80;;;22.37;;
79122;SDS011;68526;44.600;26.032;2024-01-25T01:24:54;40.65;;;22.58;;
79122;SDS011;68526;44.600;26.032;2024-01-25T01:25:10;44.95;;;23.80;;
79122;SDS011;68526;44.600;26.032;2024-01-25T01:25:26;46.03;;;23.42;;
79122;SDS011;68526;44.600;26.032;2024-01-25T01:25:42;44.13;;;22.73;;
79122;SDS011;68526;44.600;26.032;2024-01-25T01:25:59;41.22;;;22.48;;
79122;SDS011;68526;44.600;26.032;2024-01-25T01:26:15;40.13;;;22.80;;
79122;SDS011;68526;44.600;26.032;2024-01-25T01:26:31;41.70;;;22.45;;
79122;SDS011;68526;44.600;26.032;2024-01-25T01:26:46;43.00;;;22.70;;
79122;SDS011;68526;44.600;26.032;2024-01-25T01:27:04;42.83;;;23.10;;
79122;SDS011;68526;44.600;26.032;2024-01-25T01:27:19;41.63;;;22.58;;
79122;SDS011;68526;44.600;26.032;2024-01-25T01:27:36;42.90;;;22.67;;
79122;SDS011;68526;44.600;26.032;2024-01-25T01:27:53;42.58;;;23.13;;
79122;SDS011;68526;44.600;26.032;2024-01-25T01:28:09;46.42;;;23.05;;
79122;SDS011;68526;44.600;26.032;2024-01-25T01:28:25;45.25;;;22.65;;
79122;SDS011;68526;44.600;26.032;2024-01-25T01:28:41;41.85;;;22.33;;
79122;SDS011;68526;44.600;26.032;2024-01-25T01:28:56;43.60;;;22.65;;
79122;SDS011;68526;44.600;26.032;2024-01-25T01:29:12;42.72;;;22.85;;
79122;SDS011;68526;44.600;26.032;2024-01-25T01:29:28;42.20;;;22.73;;
79122;SDS011;68526;44.600;26.032;2024-01-25T01:29:44;43.20;;;23.58;;
79122;SDS011;68526;44.600;26.032;2024-01-25T01:30:01;44.53;;;23.77;;
79122;SDS011;68526;44.600;26.032;2024-01-25T01:30:18;45.13;;;23.17;;
79122;SDS011;68526;44.600;26.032;2024-01-25T01:30:34;42.13;;;22.13;;
79122;SDS011;68526;44.600;26.032;2024-01-25T01:30:50;42.35;;;22.52;;
79122;SDS011;68526;44.600;26.032;2024-01-25T01:31:06;44.60;;;23.73;;
79122;SDS011;68526;44.600;26.032;2024-01-25T01:31:22;44.28;;;23.48;;
79122;SDS011;68526;44.600;26.032;2024-01-25T01:31:37;43.50;;;23.33;;
79122;SDS011;68526;44.600;26.032;2024-01-25T01:31:53;43.88;;;23.73;;
79122;SDS011;68526;44.600;26.032;2024-01-25T01:32:10;43.75;;;23.58;;
79122;SDS011;68526;44.600;26.032;2024-01-25T01:32:26;40.53;;;22.40;;
79122;SDS011;68526;44.600;26.032;2024-01-25T01:32:42;40.33;;;22.25;;
79122;SDS011;68526;44.600;26.032;2024-01-25T01:32:58;45.47;;;22.77;;
79122;SDS011;68526;44.600;26.032;2024-01-25T01:33:14;44.85;;;22.15;;
79122;SDS011;68526;44.600;26.032;2024-01-25T01:33:30;41.78;;;22.55;;
79122;SDS011;68526;44.600;26.032;2024-01-25T01:33:46;45.05;;;24.15;;
79122;SDS011;68526;44.600;26.032;2024-01-25T01:34:03;46.13;;;24.27;;
79122;SDS011;68526;44.600;26.032;2024-01-25T01:34:19;44.67;;;23.55;;
79122;SDS011;68526;44.600;26.032;2024-01-25T01:34:35;43.75;;;23.38;;
79122;SDS011;68526;44.600;26.032;2024-01-25T01:34:51;45.25;;;24.35;;
79122;SDS011;68526;44.600;26.032;2024-01-25T01:35:07;44.45;;;24.17;;